Time;durP1;ratioP1;P1;durP2;ratioP2;P2;SDS_P1;SDS_P2;PMS_P1;PMS_P2;Temp;Humidity;BMP_temperature;BMP_pressure;BME280_temperature;BME280_humidity;BME280_pressure;Samples;Min_cycle;Max_cycle;Signal;HPM_P1;HPM_P2
2021/10/14 07:12:13;;;;;;;9.75;7.18;;;;;;;;;;10594494;28;20071;-80
2021/10/14 07:17:15;;;;;;;12.65;7.72;;;;;;;;;;10583087;28;20042;-82
2021/10/14 07:22:15;;;;;;;10.13;6.60;;;;;;;;;;10557129;28;20028;-80
2021/10/14 07:27:17;;;;;;;9.55;6.63;;;;;;;;;;10574162;28;20028;-79
2021/10/14 07:32:18;;;;;;;9.18;7.25;;;;;;;;;;10586549;28;20055;-79
2021/10/14 07:37:19;;;;;;;9.65;7.10;;;;;;;;;;10591093;28;20031;-81
2021/10/14 07:42:20;;;;;;;11.43;7.70;;;;;;;;;;10563445;28;20054;-81
2021/10/14 07:47:21;;;;;;;10.98;7.78;;;;;;;;;;10556774;28;20612;-81
2021/10/14 07:52:22;;;;;;;13.43;9.98;;;;;;;;;;10556661;28;20391;-81
2021/10/14 07:57:23;;;;;;;11.25;8.85;;;;;;;;;;10555494;28;20027;-82
2021/10/14 08:02:24;;;;;;;10.40;7.32;;;;;;;;;;10554699;28;20071;-82
2021/10/14 08:07:26;;;;;;;10.25;7.65;;;;;;;;;;10554368;28;20395;-82
2021/10/14 08:12:27;;;;;;;12.65;9.75;;;;;;;;;;10554567;28;20031;-82
2021/10/14 08:17:43;;;;;;;13.00;8.38;;;;;;;;;;10556133;28;20487;-82
2021/10/14 08:39:54;;;;;;;12.50;10.43;;;;;;;;;;10553076;28;20032;-86
2021/10/14 08:50:34;;;;;;;14.00;11.13;;;;;;;;;;10547846;28;20028;-83
2021/10/14 08:55:38;;;;;;;14.25;11.32;;;;;;;;;;10527721;28;20040;-82
2021/10/14 09:00:40;;;;;;;17.38;12.90;;;;;;;;;;10546677;28;20036;-81
2021/10/14 09:05:47;;;;;;;14.27;11.35;;;;;;;;;;10547562;28;20020;-82
2021/10/14 09:11:02;;;;;;;16.40;11.38;;;;;;;;;;10547871;28;20510;-82
2021/10/14 09:16:22;;;;;;;14.48;11.82;;;;;;;;;;10547663;28;20028;-81
2021/10/14 09:21:25;;;;;;;15.50;11.67;;;;;;;;;;10551911;28;20024;-82
2021/10/14 09:26:30;;;;;;;16.35;12.02;;;;;;;;;;10549088;28;20020;-81
2021/10/14 09:31:51;;;;;;;14.38;11.52;;;;;;;;;;10555505;28;20028;-83
2021/10/14 09:37:01;;;;;;;12.80;10.63;;;;;;;;;;10553372;28;20024;-86
2021/10/14 09:53:44;;;;;;;11.50;9.90;;;;;;;;;;10503111;28;20017;-85
2021/10/14 09:58:58;;;;;;;15.38;11.25;;;;;;;;;;10507550;28;20067;-86
2021/10/14 10:04:49;;;;;;;23.33;15.68;;;;;;;;;;10458290;23;20385;-87
2021/10/14 10:09:51;;;;;;;20.65;16.27;;;;;;;;;;10431475;28;20021;-87
2021/10/14 10:15:06;;;;;;;17.50;12.95;;;;;;;;;;10432783;28;20041;-88
2021/10/14 10:20:34;;;;;;;17.65;13.95;;;;;;;;;;10433048;28;20544;-87
2021/10/14 10:26:13;;;;;;;20.08;14.45;;;;;;;;;;10436168;28;20406;-85
2021/10/14 10:31:21;;;;;;;18.67;14.65;;;;;;;;;;10427848;28;20037;-85
2021/10/14 10:36:42;;;;;;;23.45;17.40;;;;;;;;;;10431150;28;20095;-86
2021/10/14 10:41:45;;;;;;;16.88;14.27;;;;;;;;;;10436371;28;20112;-85
2021/10/14 10:46:53;;;;;;;18.63;14.10;;;;;;;;;;10434415;28;20026;-85
2021/10/14 10:51:54;;;;;;;16.98;14.10;;;;;;;;;;10434688;28;20463;-85
2021/10/14 10:56:55;;;;;;;20.30;15.70;;;;;;;;;;10442327;28;20022;-86
2021/10/14 11:01:56;;;;;;;17.50;13.05;;;;;;;;;;10443659;28;20065;-85
2021/10/14 11:06:57;;;;;;;20.58;13.20;;;;;;;;;;10435914;28;20033;-86
2021/10/14 11:12:05;;;;;;;18.52;13.88;;;;;;;;;;10440389;28;20033;-84
2021/10/14 11:17:29;;;;;;;15.20;11.77;;;;;;;;;;10448582;28;20030;-85
2021/10/14 11:22:33;;;;;;;17.25;12.05;;;;;;;;;;10461413;28;20017;-84
2021/10/14 11:27:35;;;;;;;16.77;12.65;;;;;;;;;;10465587;28;20093;-85
2021/10/14 11:32:48;;;;;;;16.67;11.85;;;;;;;;;;10442538;28;20377;-85
2021/10/14 11:37:49;;;;;;;16.13;11.68;;;;;;;;;;10439847;28;20029;-85
2021/10/14 11:42:56;;;;;;;17.20;12.75;;;;;;;;;;10435653;28;20112;-84
2021/10/14 11:48:27;;;;;;;14.18;10.27;;;;;;;;;;10435300;28;20049;-85
2021/10/14 11:53:29;;;;;;;15.00;9.90;;;;;;;;;;10540112;28;20038;-85
2021/10/14 11:58:31;;;;;;;11.27;8.95;;;;;;;;;;10544031;28;20100;-85
2021/10/14 12:03:39;;;;;;;13.52;8.68;;;;;;;;;;10539180;28;20415;-85
2021/10/14 12:08:43;;;;;;;11.82;8.10;;;;;;;;;;10563355;28;20028;-84
2021/10/14 12:14:05;;;;;;;13.40;8.85;;;;;;;;;;10538473;28;20085;-85
2021/10/14 12:19:17;;;;;;;13.13;7.45;;;;;;;;;;10554405;28;20070;-85
2021/10/14 12:24:53;;;;;;;12.32;8.52;;;;;;;;;;10538595;28;20052;-84
2021/10/14 12:29:50;;;;;;;10.77;7.90;;;;;;;;;;10585807;28;20020;-85
2021/10/14 12:34:55;;;;;;;17.83;14.52;;;;;;;;;;10572680;28;20015;-87
2021/10/14 12:40:10;;;;;;;16.92;11.18;;;;;;;;;;10568812;28;20063;-86
2021/10/14 12:45:13;;;;;;;12.07;8.65;;;;;;;;;;10535417;28;20058;-86
2021/10/14 12:55:55;;;;;;;13.25;7.80;;;;;;;;;;10523407;28;20038;-84
2021/10/14 13:01:04;;;;;;;6.47;5.15;;;;;;;;;;10540520;28;20040;-84
2021/10/14 13:06:06;;;;;;;7.95;5.13;;;;;;;;;;10533515;28;20028;-84
2021/10/14 13:11:09;;;;;;;8.98;5.35;;;;;;;;;;10534748;28;20038;-84
2021/10/14 13:16:11;;;;;;;7.20;4.85;;;;;;;;;;10536672;28;20089;-85
2021/10/14 13:21:12;;;;;;;9.20;6.47;;;;;;;;;;10538601;28;20032;-85
2021/10/14 13:31:59;;;;;;;10.13;6.00;;;;;;;;;;10492149;28;20040;-85
2021/10/14 13:37:21;;;;;;;11.20;5.75;;;;;;;;;;10529118;28;20035;-85
2021/10/14 13:42:37;;;;;;;6.93;4.70;;;;;;;;;;10529306;28;20506;-85
2021/10/14 13:47:57;;;;;;;10.20;7.07;;;;;;;;;;10539539;28;20027;-85
2021/10/14 13:53:26;;;;;;;7.15;5.30;;;;;;;;;;10524048;28;20511;-86
2021/10/14 13:58:49;;;;;;;8.93;5.60;;;;;;;;;;10525691;28;20123;-85
2021/10/14 15:05:59;;;;;;;7.00;4.60;;;;;;;;;;10606506;28;20043;-85
2021/10/14 15:11:05;;;;;;;7.07;4.80;;;;;;;;;;10617245;28;20054;-85
2021/10/14 15:16:06;;;;;;;9.15;5.20;;;;;;;;;;10614491;28;20034;-85
2021/10/14 16:04:00;;;;;;;10.90;5.10;;;;;;;;;;10534734;22;20453;-84
2021/10/14 16:09:01;;;;;;;10.38;5.40;;;;;;;;;;10515214;28;20044;-83
2021/10/14 16:14:39;;;;;;;8.35;4.60;;;;;;;;;;10506220;28;20032;-83
2021/10/14 16:19:40;;;;;;;7.45;4.63;;;;;;;;;;10503306;28;20029;-83
2021/10/14 16:24:41;;;;;;;6.28;4.35;;;;;;;;;;10518853;28;20045;-86
2021/10/14 17:18:39;;;;;;;7.95;5.13;;;;;;;;;;10595218;22;20048;-84
2021/10/14 17:34:50;;;;;;;10.68;6.28;;;;;;;;;;10518290;28;20025;-83
2021/10/14 17:39:54;;;;;;;7.93;5.03;;;;;;;;;;10536119;28;20060;-84
2021/10/14 17:45:01;;;;;;;7.25;4.95;;;;;;;;;;10513631;28;20468;-84
2021/10/14 17:50:02;;;;;;;7.40;5.03;;;;;;;;;;10519434;28;20048;-84
2021/10/14 17:55:03;;;;;;;5.72;3.38;;;;;;;;;;10514646;28;20055;-85
2021/10/14 18:00:05;;;;;;;6.85;4.88;;;;;;;;;;10517650;28;20032;-82
2021/10/14 18:05:23;;;;;;;7.13;4.57;;;;;;;;;;10537499;28;20032;-83
2021/10/14 18:42:25;;;;;;;13.90;10.38;;;;;;;;;;10513198;28;20029;-83
2021/10/14 18:47:26;;;;;;;15.60;11.18;;;;;;;;;;10513969;28;20078;-82
2021/10/14 18:52:29;;;;;;;13.00;10.55;;;;;;;;;;10510972;28;20024;-83
2021/10/14 18:57:30;;;;;;;10.80;7.13;;;;;;;;;;10525892;28;20029;-84
2021/10/14 19:02:32;;;;;;;13.57;8.48;;;;;;;;;;10533481;28;20033;-82
2021/10/14 19:18:12;;;;;;;11.82;7.10;;;;;;;;;;10521239;28;20040;-84
